Time;durP1;ratioP1;P1;durP2;ratioP2;P2;SDS_P1;SDS_P2;PMS_P1;PMS_P2;Temp;Humidity;BMP_temperature;BMP_pressure;BME280_temperature;BME280_humidity;BME280_pressure;Samples;Min_cycle;Max_cycle;Signal;HPM_P1;HPM_P2
2023/09/07 00:02:28;;;;;;;9.18;7.18;;;;;;;;;;5045064;28;20045;-60
2023/09/07 00:04:54;;;;;;;9.18;6.15;;;;;;;;;;5034786;28;20383;-61
2023/09/07 00:07:21;;;;;;;7.72;5.88;;;;;;;;;;5043046;28;20052;-62
2023/09/07 00:09:47;;;;;;;8.07;6.25;;;;;;;;;;5038329;28;20037;-60
2023/09/07 00:12:14;;;;;;;7.60;5.93;;;;;;;;;;5040739;28;20060;-60
2023/09/07 00:14:40;;;;;;;9.52;5.88;;;;;;;;;;5035989;28;20040;-62
2023/09/07 00:17:07;;;;;;;8.52;6.63;;;;;;;;;;5048869;28;20049;-62
2023/09/07 00:19:36;;;;;;;9.68;6.25;;;;;;;;;;5044385;28;20049;-60
2023/09/07 00:22:03;;;;;;;9.82;5.82;;;;;;;;;;5039511;28;20045;-61
2023/09/07 00:24:31;;;;;;;7.47;5.68;;;;;;;;;;5042208;28;20045;-62
2023/09/07 00:26:57;;;;;;;7.22;5.50;;;;;;;;;;5040686;28;20594;-63
2023/09/07 00:29:24;;;;;;;9.40;5.68;;;;;;;;;;5042728;28;20053;-61
2023/09/07 00:31:51;;;;;;;9.73;6.85;;;;;;;;;;5044497;28;20037;-62
2023/09/07 00:34:17;;;;;;;7.97;6.00;;;;;;;;;;5039983;28;20052;-61
2023/09/07 00:36:45;;;;;;;9.05;6.57;;;;;;;;;;5041085;28;20041;-61
2023/09/07 00:39:12;;;;;;;8.60;6.60;;;;;;;;;;5048610;28;20079;-60
2023/09/07 00:41:39;;;;;;;9.35;6.43;;;;;;;;;;5044180;28;20132;-60
2023/09/07 00:44:05;;;;;;;9.20;6.07;;;;;;;;;;5043975;28;20048;-61
2023/09/07 00:46:32;;;;;;;8.77;6.45;;;;;;;;;;5040771;28;20494;-61
2023/09/07 00:48:59;;;;;;;11.98;8.93;;;;;;;;;;5035766;28;20041;-60
2023/09/07 00:51:26;;;;;;;8.93;7.35;;;;;;;;;;5037904;28;20041;-62
2023/09/07 00:53:54;;;;;;;7.70;6.13;;;;;;;;;;5046420;28;20064;-61
2023/09/07 00:56:21;;;;;;;7.82;6.05;;;;;;;;;;5037870;28;20159;-62
2023/09/07 00:58:48;;;;;;;10.57;7.28;;;;;;;;;;5038803;28;20467;-61
2023/09/07 01:01:15;;;;;;;8.18;6.38;;;;;;;;;;5039830;28;20047;-59
2023/09/07 01:03:41;;;;;;;13.23;8.77;;;;;;;;;;5038180;28;20131;-61
2023/09/07 01:06:14;;;;;;;8.73;6.78;;;;;;;;;;5033382;28;20072;-61
2023/09/07 01:08:45;;;;;;;7.60;6.07;;;;;;;;;;5041609;28;20056;-61
2023/09/07 01:11:16;;;;;;;7.63;5.88;;;;;;;;;;5037531;28;20057;-62
2023/09/07 01:13:43;;;;;;;7.70;5.90;;;;;;;;;;5037744;28;20128;-62
2023/09/07 01:16:11;;;;;;;9.02;5.80;;;;;;;;;;5047848;28;20075;-62
2023/09/07 01:18:38;;;;;;;9.10;6.32;;;;;;;;;;5036405;28;20041;-61
2023/09/07 01:21:07;;;;;;;9.90;6.03;;;;;;;;;;5032941;28;20095;-61
2023/09/07 01:23:36;;;;;;;7.90;6.57;;;;;;;;;;5041716;28;20045;-61
2023/09/07 01:26:03;;;;;;;11.48;6.03;;;;;;;;;;5035932;28;20055;-61
2023/09/07 01:28:30;;;;;;;7.72;6.03;;;;;;;;;;5036896;28;20148;-61
2023/09/07 01:30:57;;;;;;;8.82;6.00;;;;;;;;;;5039801;28;20474;-62
2023/09/07 01:33:24;;;;;;;8.90;6.63;;;;;;;;;;5032529;28;20513;-62
2023/09/07 01:35:51;;;;;;;10.00;7.00;;;;;;;;;;5038817;28;20072;-62
2023/09/07 01:38:17;;;;;;;7.47;5.80;;;;;;;;;;5038462;28;21595;-61
2023/09/07 01:40:46;;;;;;;8.93;6.10;;;;;;;;;;5031103;28;20449;-61
2023/09/07 01:43:12;;;;;;;8.55;6.25;;;;;;;;;;5037675;28;20077;-62
2023/09/07 01:45:39;;;;;;;8.05;6.10;;;;;;;;;;5045812;28;20045;-62
2023/09/07 01:48:09;;;;;;;8.60;6.45;;;;;;;;;;5035602;28;20052;-61
2023/09/07 01:50:36;;;;;;;8.73;6.43;;;;;;;;;;5044752;28;20037;-61
2023/09/07 01:53:04;;;;;;;9.98;7.82;;;;;;;;;;5037784;28;20048;-61
2023/09/07 01:55:31;;;;;;;8.43;5.82;;;;;;;;;;5039120;28;20111;-61
2023/09/07 01:57:59;;;;;;;8.48;6.68;;;;;;;;;;5039244;28;20142;-61
2023/09/07 02:00:25;;;;;;;9.45;6.18;;;;;;;;;;5037838;28;20579;-61
2023/09/07 02:02:52;;;;;;;9.45;6.18;;;;;;;;;;5033862;28;20038;-60
2023/09/07 02:05:19;;;;;;;9.68;6.57;;;;;;;;;;5029427;28;20049;-61
2023/09/07 02:07:47;;;;;;;8.30;6.57;;;;;;;;;;5040646;28;20075;-61
2023/09/07 02:10:15;;;;;;;7.38;6.05;;;;;;;;;;5031345;28;20060;-62
2023/09/07 02:12:41;;;;;;;9.18;6.22;;;;;;;;;;5034899;28;20056;-60
2023/09/07 02:15:10;;;;;;;8.93;6.70;;;;;;;;;;5048919;28;20051;-60
2023/09/07 02:17:37;;;;;;;9.95;6.55;;;;;;;;;;5034755;28;20049;-61
2023/09/07 02:20:08;;;;;;;9.35;6.43;;;;;;;;;;5045371;28;20051;-61
2023/09/07 02:22:35;;;;;;;10.55;6.90;;;;;;;;;;5043020;28;20060;-61
2023/09/07 02:25:01;;;;;;;9.18;6.57;;;;;;;;;;5042369;28;20638;-61
2023/09/07 02:27:28;;;;;;;7.88;6.25;;;;;;;;;;5044757;28;20049;-61
2023/09/07 02:29:54;;;;;;;9.15;6.93;;;;;;;;;;5041260;28;20067;-61
2023/09/07 02:32:23;;;;;;;9.35;7.50;;;;;;;;;;5047253;28;20049;-61
2023/09/07 02:34:49;;;;;;;8.80;6.95;;;;;;;;;;5035157;28;20098;-61
2023/09/07 02:37:16;;;;;;;8.13;6.63;;;;;;;;;;5044219;28;20053;-61
2023/09/07 02:39:43;;;;;;;9.15;6.95;;;;;;;;;;5043528;28;20135;-61
2023/09/07 02:42:10;;;;;;;8.98;6.43;;;;;;;;;;5044712;28;20482;-60
2023/09/07 02:44:37;;;;;;;8.88;6.63;;;;;;;;;;5043727;28;20056;-61
2023/09/07 02:47:04;;;;;;;9.40;6.95;;;;;;;;;;5046685;28;20045;-60
2023/09/07 02:49:32;;;;;;;8.95;6.53;;;;;;;;;;5042014;28;20052;-61
2023/09/07 02:51:59;;;;;;;10.05;7.13;;;;;;;;;;5046407;28;20129;-61
2023/09/07 02:54:26;;;;;;;10.18;7.05;;;;;;;;;;5047444;28;20051;-60
2023/09/07 02:56:52;;;;;;;8.63;6.78;;;;;;;;;;5044733;28;20589;-61
2023/09/07 02:59:19;;;;;;;8.68;6.85;;;;;;;;;;5039576;28;20042;-61
2023/09/07 03:01:46;;;;;;;10.70;7.88;;;;;;;;;;5043867;28;20049;-62
2023/09/07 03:04:13;;;;;;;8.52;7.05;;;;;;;;;;5038946;28;20132;-61
2023/09/07 03:06:41;;;;;;;10.32;7.00;;;;;;;;;;5041879;28;20132;-62
2023/09/07 03:09:08;;;;;;;8.02;6.47;;;;;;;;;;5045398;28;20079;-62
2023/09/07 03:11:35;;;;;;;9.93;7.60;;;;;;;;;;5042344;28;20094;-61
2023/09/07 03:14:02;;;;;;;10.88;7.47;;;;;;;;;;5038709;28;20051;-61
2023/09/07 03:16:30;;;;;;;9.32;7.13;;;;;;;;;;5045671;28;20056;-61
2023/09/07 03:18:56;;;;;;;11.93;8.05;;;;;;;;;;5043163;28;20041;-61
2023/09/07 03:21:25;;;;;;;10.38;7.70;;;;;;;;;;5040678;28;20048;-60
2023/09/07 03:23:53;;;;;;;9.75;6.70;;;;;;;;;;5040636;28;20106;-61
2023/09/07 03:26:20;;;;;;;9.98;7.15;;;;;;;;;;5041885;28;20053;-61
2023/09/07 03:28:46;;;;;;;10.20;7.30;;;;;;;;;;5038582;28;20049;-61
2023/09/07 03:31:13;;;;;;;9.15;6.97;;;;;;;;;;5037566;28;20657;-61
2023/09/07 03:33:40;;;;;;;11.25;7.38;;;;;;;;;;5037258;28;20124;-62
2023/09/07 03:36:09;;;;;;;10.40;7.35;;;;;;;;;;5035683;28;20057;-61
2023/09/07 03:38:35;;;;;;;10.63;7.55;;;;;;;;;;5035165;28;20452;-60
2023/09/07 03:41:03;;;;;;;9.95;7.60;;;;;;;;;;5040311;28;20386;-61
2023/09/07 03:43:30;;;;;;;9.05;7.50;;;;;;;;;;5040483;28;20530;-61
2023/09/07 03:45:58;;;;;;;8.38;7.30;;;;;;;;;;5044675;28;20064;-62
2023/09/07 03:48:24;;;;;;;9.80;8.15;;;;;;;;;;5035308;28;20540;-61
2023/09/07 03:50:51;;;;;;;13.00;7.65;;;;;;;;;;5036651;28;20040;-61
2023/09/07 03:53:17;;;;;;;11.43;8.43;;;;;;;;;;5034624;28;20046;-61
2023/09/07 03:55:45;;;;;;;11.15;7.57;;;;;;;;;;5040961;28;20056;-61
2023/09/07 03:58:13;;;;;;;11.23;8.43;;;;;;;;;;5038750;28;20657;-61
2023/09/07 04:00:41;;;;;;;12.07;7.47;;;;;;;;;;5041042;28;20558;-61
2023/09/07 04:03:07;;;;;;;10.57;8.57;;;;;;;;;;5041083;28;20052;-60
2023/09/07 04:05:34;;;;;;;12.13;8.00;;;;;;;;;;5037896;28;20132;-62
2023/09/07 04:08:02;;;;;;;10.35;7.78;;;;;;;;;;5039880;28;20041;-61
2023/09/07 04:10:29;;;;;;;11.02;8.38;;;;;;;;;;5040928;28;20041;-62
2023/09/07 04:12:56;;;;;;;10.45;7.55;;;;;;;;;;5045015;28;20045;-61
2023/09/07 04:15:25;;;;;;;11.85;8.32;;;;;;;;;;5047765;28;20123;-60
2023/09/07 04:17:52;;;;;;;12.07;8.63;;;;;;;;;;5045919;28;20152;-59
2023/09/07 04:20:18;;;;;;;11.00;8.05;;;;;;;;;;5032145;28;20056;-60
2023/09/07 04:22:45;;;;;;;10.05;7.60;;;;;;;;;;5041232;28;20056;-62
2023/09/07 04:25:12;;;;;;;10.57;7.90;;;;;;;;;;5030656;28;20049;-61
2023/09/07 04:27:38;;;;;;;10.02;7.80;;;;;;;;;;5030917;28;20149;-62
2023/09/07 04:30:06;;;;;;;10.73;8.23;;;;;;;;;;5030916;28;20046;-62
2023/09/07 04:32:34;;;;;;;10.85;8.07;;;;;;;;;;5030842;28;20570;-60
2023/09/07 04:35:01;;;;;;;12.55;8.77;;;;;;;;;;5030410;28;20137;-60
2023/09/07 04:37:28;;;;;;;11.52;8.10;;;;;;;;;;5029920;28;20637;-62
2023/09/07 04:39:54;;;;;;;9.90;8.40;;;;;;;;;;5030636;28;20132;-62
2023/09/07 04:42:21;;;;;;;12.60;8.38;;;;;;;;;;5030593;28;20049;-61
2023/09/07 04:44:48;;;;;;;11.77;8.23;;;;;;;;;;5030274;28;20082;-61
2023/09/07 04:47:15;;;;;;;12.00;8.52;;;;;;;;;;5030443;28;20053;-61
2023/09/07 04:49:43;;;;;;;10.70;8.50;;;;;;;;;;5039227;28;20041;-62
2023/09/07 04:52:10;;;;;;;13.80;8.80;;;;;;;;;;5050000;28;20132;-60
2023/09/07 04:54:36;;;;;;;11.13;7.88;;;;;;;;;;5049961;28;20128;-61
2023/09/07 04:57:03;;;;;;;13.25;8.63;;;;;;;;;;5049924;28;20044;-61
2023/09/07 04:59:30;;;;;;;12.18;8.15;;;;;;;;;;5036739;28;20631;-61
2023/09/07 05:02:00;;;;;;;11.40;8.15;;;;;;;;;;5030207;28;20103;-61
2023/09/07 05:04:26;;;;;;;13.88;8.63;;;;;;;;;;5030250;28;20410;-61
2023/09/07 05:06:54;;;;;;;12.73;8.52;;;;;;;;;;5030141;28;20050;-60
2023/09/07 05:09:21;;;;;;;11.65;8.27;;;;;;;;;;5030000;28;20057;-61
2023/09/07 05:11:48;;;;;;;11.20;8.63;;;;;;;;;;5029762;28;20052;-62
2023/09/07 05:14:14;;;;;;;11.18;8.38;;;;;;;;;;5030114;28;20277;-62
2023/09/07 05:16:43;;;;;;;10.75;7.95;;;;;;;;;;5043290;28;20047;-61
2023/09/07 05:19:10;;;;;;;10.63;8.52;;;;;;;;;;5030033;28;20046;-62
2023/09/07 05:21:36;;;;;;;10.27;8.13;;;;;;;;;;5029944;28;20045;-62
2023/09/07 05:24:04;;;;;;;10.85;8.20;;;;;;;;;;5030034;28;20406;-62
2023/09/07 05:26:31;;;;;;;11.90;8.50;;;;;;;;;;5029814;28;20048;-62
2023/09/07 05:28:58;;;;;;;12.00;8.63;;;;;;;;;;5047657;28;20464;-61
2023/09/07 05:31:24;;;;;;;12.80;8.75;;;;;;;;;;5049560;28;20048;-61
2023/09/07 05:33:51;;;;;;;11.93;8.55;;;;;;;;;;5040734;28;20501;-62
2023/09/07 05:36:18;;;;;;;12.02;8.85;;;;;;;;;;5049302;28;20075;-62
2023/09/07 05:38:44;;;;;;;12.43;8.98;;;;;;;;;;5049724;28;20053;-61
2023/09/07 05:41:12;;;;;;;14.10;9.13;;;;;;;;;;5034528;28;20409;-63
2023/09/07 05:43:39;;;;;;;13.02;9.45;;;;;;;;;;5029483;28;20056;-62
2023/09/07 05:46:06;;;;;;;13.23;10.00;;;;;;;;;;5029415;28;20049;-62
2023/09/07 05:48:32;;;;;;;12.30;9.45;;;;;;;;;;5036618;28;20063;-60
2023/09/07 05:50:59;;;;;;;14.00;9.60;;;;;;;;;;5053638;28;20045;-60
2023/09/07 05:53:26;;;;;;;12.82;9.23;;;;;;;;;;5053746;28;20399;-62
2023/09/07 05:55:53;;;;;;;13.80;10.02;;;;;;;;;;5053712;28;20055;-62
2023/09/07 05:58:21;;;;;;;13.73;9.63;;;;;;;;;;5053351;28;20038;-62
2023/09/07 06:00:47;;;;;;;12.88;9.40;;;;;;;;;;5053169;28;20052;-63
2023/09/07 06:03:14;;;;;;;11.23;8.63;;;;;;;;;;5053595;28;20079;-63
2023/09/07 06:05:41;;;;;;;14.25;9.38;;;;;;;;;;5053425;28;20077;-63
2023/09/07 06:08:08;;;;;;;13.32;9.05;;;;;;;;;;5053137;28;20429;-60
2023/09/07 06:10:35;;;;;;;13.20;9.05;;;;;;;;;;5053176;28;20095;-60
2023/09/07 06:13:01;;;;;;;11.93;9.00;;;;;;;;;;5053474;28;20049;-63
2023/09/07 06:15:30;;;;;;;11.35;9.57;;;;;;;;;;5053378;28;20060;-62
2023/09/07 06:17:57;;;;;;;13.25;9.13;;;;;;;;;;5053246;28;20140;-63
2023/09/07 06:20:23;;;;;;;13.15;9.15;;;;;;;;;;5052962;28;20045;-63
2023/09/07 06:22:50;;;;;;;13.70;9.10;;;;;;;;;;5053117;28;20049;-60
2023/09/07 06:25:17;;;;;;;13.10;9.55;;;;;;;;;;5052884;28;20137;-63
2023/09/07 06:27:43;;;;;;;14.60;9.50;;;;;;;;;;5053229;28;20048;-62
2023/09/07 06:30:10;;;;;;;16.05;10.95;;;;;;;;;;5047277;28;20469;-61
2023/09/07 06:32:40;;;;;;;14.20;10.15;;;;;;;;;;5033152;28;20079;-61
2023/09/07 06:35:07;;;;;;;11.43;8.98;;;;;;;;;;5050140;22;20044;-60
2023/09/07 06:37:34;;;;;;;13.18;10.02;;;;;;;;;;5043430;28;20048;-60
2023/09/07 06:40:00;;;;;;;15.77;9.52;;;;;;;;;;5046870;28;20147;-60
2023/09/07 06:42:27;;;;;;;13.32;9.48;;;;;;;;;;5040768;28;20144;-60
2023/09/07 06:44:53;;;;;;;13.30;10.13;;;;;;;;;;5045231;28;20468;-61
2023/09/07 06:47:20;;;;;;;12.57;9.40;;;;;;;;;;5046483;28;20053;-60
2023/09/07 06:49:48;;;;;;;12.70;9.45;;;;;;;;;;5040074;28;20662;-60
2023/09/07 06:52:15;;;;;;;15.52;10.40;;;;;;;;;;5048303;28;20053;-61
2023/09/07 06:54:42;;;;;;;13.38;9.88;;;;;;;;;;5042692;28;20476;-60
2023/09/07 06:57:08;;;;;;;12.38;8.93;;;;;;;;;;5054677;28;20052;-60
2023/09/07 06:59:35;;;;;;;12.05;9.25;;;;;;;;;;5053884;28;20069;-60
2023/09/07 07:02:04;;;;;;;13.02;9.13;;;;;;;;;;5049564;28;20124;-59
2023/09/07 07:04:31;;;;;;;14.30;9.95;;;;;;;;;;5059373;28;20044;-60
2023/09/07 07:07:01;;;;;;;11.07;9.00;;;;;;;;;;5055572;28;20061;-60
2023/09/07 07:09:27;;;;;;;12.75;9.45;;;;;;;;;;5053859;28;20040;-59
2023/09/07 07:11:54;;;;;;;12.00;8.95;;;;;;;;;;5046049;28;20083;-59
2023/09/07 07:14:21;;;;;;;12.15;9.18;;;;;;;;;;5042093;28;20045;-60
2023/09/07 07:16:47;;;;;;;11.45;8.63;;;;;;;;;;5049862;28;20424;-60
2023/09/07 07:19:14;;;;;;;14.55;8.75;;;;;;;;;;5043140;28;20053;-59
2023/09/07 07:21:41;;;;;;;12.73;9.10;;;;;;;;;;5062264;28;20049;-60
2023/09/07 07:24:09;;;;;;;13.55;8.65;;;;;;;;;;5043794;28;20067;-60
2023/09/07 07:26:35;;;;;;;13.70;9.55;;;;;;;;;;5044778;28;20135;-64
2023/09/07 07:29:02;;;;;;;12.55;9.07;;;;;;;;;;5043891;28;20049;-62
2023/09/07 07:31:29;;;;;;;12.23;8.88;;;;;;;;;;5046461;28;20048;-61
2023/09/07 07:33:56;;;;;;;10.88;8.85;;;;;;;;;;5052771;28;20044;-60
2023/09/07 07:36:23;;;;;;;12.15;9.05;;;;;;;;;;5043892;28;20055;-60
2023/09/07 07:38:49;;;;;;;10.80;8.70;;;;;;;;;;5055569;28;20079;-60
2023/09/07 07:41:17;;;;;;;12.82;9.18;;;;;;;;;;5041991;28;20041;-60
2023/09/07 07:43:44;;;;;;;11.57;9.07;;;;;;;;;;5055098;28;20468;-60
2023/09/07 07:46:11;;;;;;;10.80;8.20;;;;;;;;;;5054509;28;20056;-60
2023/09/07 07:48:37;;;;;;;11.82;8.20;;;;;;;;;;5050007;28;20045;-60
2023/09/07 07:51:05;;;;;;;12.32;8.25;;;;;;;;;;5052274;28;20049;-59
2023/09/07 07:53:31;;;;;;;16.00;9.30;;;;;;;;;;5045944;28;20052;-60
2023/09/07 07:55:58;;;;;;;11.05;8.45;;;;;;;;;;5054179;28;20053;-60
2023/09/07 07:58:26;;;;;;;12.68;8.85;;;;;;;;;;5054636;28;20401;-60
2023/09/07 08:00:53;;;;;;;10.68;8.75;;;;;;;;;;5043254;28;20041;-60
2023/09/07 08:03:20;;;;;;;11.65;8.80;;;;;;;;;;5061649;28;20049;-59
2023/09/07 08:05:47;;;;;;;12.15;9.07;;;;;;;;;;5048661;28;20394;-60
2023/09/07 08:08:14;;;;;;;18.52;10.32;;;;;;;;;;5037799;28;20049;-60
2023/09/07 08:10:41;;;;;;;14.98;9.93;;;;;;;;;;5043669;28;20053;-59
2023/09/07 08:13:08;;;;;;;12.90;9.50;;;;;;;;;;5044070;28;20044;-60
2023/09/07 08:15:36;;;;;;;13.88;10.60;;;;;;;;;;5053225;28;20055;-60
2023/09/07 08:18:03;;;;;;;12.40;9.75;;;;;;;;;;5042856;28;20049;-59
2023/09/07 08:20:33;;;;;;;14.95;9.70;;;;;;;;;;5055359;28;20072;-60
2023/09/07 08:23:03;;;;;;;13.80;9.90;;;;;;;;;;5060910;28;20116;-60
2023/09/07 08:25:30;;;;;;;12.55;9.95;;;;;;;;;;5051870;28;20126;-59
2023/09/07 08:27:59;;;;;;;10.88;8.85;;;;;;;;;;5057637;28;20132;-60
2023/09/07 08:30:26;;;;;;;14.67;11.00;;;;;;;;;;5056096;28;20139;-60
2023/09/07 08:32:55;;;;;;;12.43;9.80;;;;;;;;;;5057774;28;20348;-60
2023/09/07 08:35:26;;;;;;;12.50;10.20;;;;;;;;;;5053032;28;20045;-60
2023/09/07 08:37:53;;;;;;;12.15;9.63;;;;;;;;;;5054322;28;20456;-60
2023/09/07 08:40:21;;;;;;;13.63;10.85;;;;;;;;;;5048557;28;20429;-58
2023/09/07 08:42:48;;;;;;;15.40;10.30;;;;;;;;;;5053143;28;20041;-60
2023/09/07 08:45:22;;;;;;;15.43;11.13;;;;;;;;;;5067017;28;20068;-60
2023/09/07 08:47:51;;;;;;;12.98;9.63;;;;;;;;;;5041265;28;20328;-60
2023/09/07 08:50:20;;;;;;;11.88;9.25;;;;;;;;;;5046650;28;20052;-61
2023/09/07 08:52:49;;;;;;;12.82;10.00;;;;;;;;;;5045108;28;20076;-60
2023/09/07 08:55:17;;;;;;;14.20;10.18;;;;;;;;;;5054091;28;20072;-59
2023/09/07 08:57:43;;;;;;;11.98;9.13;;;;;;;;;;5054743;28;20041;-60
2023/09/07 09:00:16;;;;;;;13.65;9.68;;;;;;;;;;5054260;28;20550;-60
2023/09/07 09:02:42;;;;;;;12.20;9.63;;;;;;;;;;5039225;28;20060;-59
2023/09/07 09:05:10;;;;;;;11.18;8.95;;;;;;;;;;5044728;28;20146;-60
2023/09/07 09:07:38;;;;;;;12.48;10.52;;;;;;;;;;5052124;28;20052;-60
2023/09/07 09:10:06;;;;;;;12.38;9.55;;;;;;;;;;5053335;28;20481;-60
2023/09/07 09:12:33;;;;;;;13.40;9.38;;;;;;;;;;5058306;28;20048;-59
2023/09/07 09:15:01;;;;;;;11.73;9.30;;;;;;;;;;5056066;28;20059;-59
2023/09/07 09:17:27;;;;;;;14.45;9.55;;;;;;;;;;5043269;28;20625;-59
2023/09/07 09:19:54;;;;;;;10.82;9.02;;;;;;;;;;5047010;28;20049;-60
2023/09/07 09:22:20;;;;;;;12.45;9.75;;;;;;;;;;5047909;28;20549;-59
2023/09/07 09:24:50;;;;;;;11.93;9.25;;;;;;;;;;5048189;28;20513;-59
2023/09/07 09:27:16;;;;;;;12.98;9.98;;;;;;;;;;5042304;28;20056;-59
2023/09/07 09:29:44;;;;;;;12.20;9.05;;;;;;;;;;5039995;28;20119;-60
2023/09/07 09:32:14;;;;;;;17.25;9.25;;;;;;;;;;5044235;28;20044;-59
2023/09/07 09:34:44;;;;;;;12.57;9.68;;;;;;;;;;5053780;28;20559;-60
2023/09/07 09:37:14;;;;;;;12.18;9.88;;;;;;;;;;5054994;28;20474;-60
2023/09/07 09:39:42;;;;;;;13.25;9.63;;;;;;;;;;5058871;28;20106;-60
2023/09/07 09:42:10;;;;;;;11.65;9.43;;;;;;;;;;5056058;28;20044;-60
2023/09/07 09:44:39;;;;;;;10.48;8.98;;;;;;;;;;5047569;28;20053;-60
2023/09/07 09:47:07;;;;;;;12.43;8.75;;;;;;;;;;5051971;28;20049;-59
2023/09/07 09:49:33;;;;;;;11.05;8.63;;;;;;;;;;5051601;28;20076;-60
2023/09/07 09:52:01;;;;;;;12.65;8.95;;;;;;;;;;5049682;28;20128;-60
2023/09/07 09:54:29;;;;;;;12.63;7.95;;;;;;;;;;5060905;28;20049;-59
2023/09/07 09:56:56;;;;;;;12.75;7.93;;;;;;;;;;5056860;28;20667;-59
2023/09/07 09:59:24;;;;;;;12.45;8.98;;;;;;;;;;5049288;28;20422;-58
2023/09/07 10:01:53;;;;;;;9.40;8.23;;;;;;;;;;5048417;28;20401;-60
2023/09/07 10:04:22;;;;;;;10.80;8.87;;;;;;;;;;5052707;28;20064;-60
2023/09/07 10:06:55;;;;;;;9.25;8.00;;;;;;;;;;5054341;28;20053;-60
2023/09/07 10:09:22;;;;;;;10.18;8.50;;;;;;;;;;5050932;28;20049;-60
2023/09/07 10:11:54;;;;;;;11.15;9.52;;;;;;;;;;5052213;28;20592;-60
2023/09/07 10:14:21;;;;;;;10.77;8.63;;;;;;;;;;5050313;28;20053;-60
2023/09/07 10:16:51;;;;;;;10.30;8.57;;;;;;;;;;5056314;28;20048;-60
2023/09/07 10:19:19;;;;;;;10.48;8.57;;;;;;;;;;5049434;28;20655;-60
2023/09/07 10:21:46;;;;;;;14.20;9.55;;;;;;;;;;5048719;28;20063;-59
2023/09/07 10:24:23;;;;;;;9.60;7.97;;;;;;;;;;5043108;28;20045;-60
2023/09/07 10:26:57;;;;;;;9.40;8.35;;;;;;;;;;5056514;28;20041;-60
2023/09/07 10:29:24;;;;;;;11.57;8.02;;;;;;;;;;5049524;28;20044;-60
2023/09/07 10:31:53;;;;;;;9.20;7.80;;;;;;;;;;5045219;28;20049;-60
2023/09/07 10:34:20;;;;;;;10.17;8.07;;;;;;;;;;5053038;28;20045;-59
2023/09/07 10:36:48;;;;;;;9.00;7.82;;;;;;;;;;5059286;28;20091;-59
2023/09/07 10:39:14;;;;;;;9.75;7.85;;;;;;;;;;5048356;28;20124;-60
2023/09/07 10:41:42;;;;;;;8.18;7.15;;;;;;;;;;5061793;28;20037;-60
2023/09/07 10:44:10;;;;;;;10.40;8.63;;;;;;;;;;5054126;28;20055;-60
2023/09/07 10:46:38;;;;;;;9.02;7.43;;;;;;;;;;5053654;28;20451;-60
2023/09/07 10:49:08;;;;;;;9.38;7.32;;;;;;;;;;5063570;28;20044;-60
2023/09/07 10:51:40;;;;;;;;;;;;;;;;;;5056551;28;20111;-60
2023/09/07 10:54:15;;;;;;;9.23;7.28;;;;;;;;;;5060407;28;19925;-60
2023/09/07 10:56:43;;;;;;;9.57;7.82;;;;;;;;;;5062771;28;20094;-60
2023/09/07 10:59:10;;;;;;;9.13;7.38;;;;;;;;;;5058047;28;20049;-60
2023/09/07 11:01:37;;;;;;;9.38;8.27;;;;;;;;;;5048880;28;20461;-60
2023/09/07 11:04:04;;;;;;;10.27;7.80;;;;;;;;;;5046787;28;20043;-59
2023/09/07 11:06:33;;;;;;;9.15;7.45;;;;;;;;;;5058129;28;20570;-60
2023/09/07 11:09:00;;;;;;;10.65;7.97;;;;;;;;;;5046170;28;20087;-60
2023/09/07 11:11:27;;;;;;;13.50;7.93;;;;;;;;;;5055545;28;20410;-60
2023/09/07 11:13:54;;;;;;;12.50;7.75;;;;;;;;;;5058570;28;20053;-60
2023/09/07 11:16:21;;;;;;;9.95;7.53;;;;;;;;;;5053953;28;20053;-59
2023/09/07 11:18:48;;;;;;;10.55;7.75;;;;;;;;;;5053967;28;20057;-60
2023/09/07 11:21:15;;;;;;;9.25;7.68;;;;;;;;;;5056800;28;20129;-60
2023/09/07 11:23:44;;;;;;;8.43;7.53;;;;;;;;;;5045344;28;20052;-60
2023/09/07 11:26:11;;;;;;;10.95;6.85;;;;;;;;;;5053657;28;20076;-60
2023/09/07 11:28:39;;;;;;;9.35;7.35;;;;;;;;;;5049377;28;20049;-60
2023/09/07 11:31:05;;;;;;;9.25;7.80;;;;;;;;;;5054387;28;20041;-60
2023/09/07 11:33:33;;;;;;;11.90;8.30;;;;;;;;;;5049559;28;20069;-60
2023/09/07 11:36:00;;;;;;;15.88;9.77;;;;;;;;;;5050215;28;20043;-60
2023/09/07 11:38:30;;;;;;;14.50;9.85;;;;;;;;;;5048602;28;20520;-60
2023/09/07 11:40:58;;;;;;;11.95;8.43;;;;;;;;;;5043643;28;20045;-60
2023/09/07 11:43:25;;;;;;;11.00;8.15;;;;;;;;;;5058160;28;20063;-60
2023/09/07 11:45:51;;;;;;;14.48;8.43;;;;;;;;;;5038409;28;20526;-60
2023/09/07 11:48:18;;;;;;;11.07;8.57;;;;;;;;;;5038935;28;20122;-61
2023/09/07 11:50:45;;;;;;;9.15;7.63;;;;;;;;;;5048422;28;20036;-60
2023/09/07 11:53:11;;;;;;;8.48;7.60;;;;;;;;;;5052716;28;20056;-61
2023/09/07 11:55:39;;;;;;;9.05;7.43;;;;;;;;;;5053638;28;20495;-61
2023/09/07 11:58:07;;;;;;;8.55;7.28;;;;;;;;;;5064955;28;20136;-61
2023/09/07 12:00:34;;;;;;;8.63;7.45;;;;;;;;;;5049884;28;20045;-61
2023/09/07 12:03:00;;;;;;;8.43;7.53;;;;;;;;;;5047927;28;20166;-60
2023/09/07 12:05:27;;;;;;;10.77;7.72;;;;;;;;;;5046052;28;20065;-61
2023/09/07 12:07:54;;;;;;;9.98;7.50;;;;;;;;;;5037495;28;20570;-64
2023/09/07 12:10:21;;;;;;;11.80;7.95;;;;;;;;;;5048435;28;20067;-61
2023/09/07 12:12:47;;;;;;;10.70;7.20;;;;;;;;;;5050983;28;20055;-60
2023/09/07 12:15:15;;;;;;;8.05;6.38;;;;;;;;;;5051031;28;20047;-61
2023/09/07 12:17:42;;;;;;;8.18;6.75;;;;;;;;;;5044112;28;20072;-60
2023/09/07 12:20:10;;;;;;;8.60;6.97;;;;;;;;;;5046131;28;20049;-61
2023/09/07 12:22:37;;;;;;;7.57;6.32;;;;;;;;;;5054623;28;20048;-60
2023/09/07 12:25:06;;;;;;;7.13;6.43;;;;;;;;;;5050586;28;20048;-60
2023/09/07 12:27:33;;;;;;;12.77;7.15;;;;;;;;;;5053091;28;20466;-60
2023/09/07 12:30:00;;;;;;;9.23;6.82;;;;;;;;;;5046046;28;20042;-60
2023/09/07 12:32:28;;;;;;;7.70;6.80;;;;;;;;;;5055189;28;20045;-61
2023/09/07 12:34:54;;;;;;;8.38;6.30;;;;;;;;;;5060488;28;20057;-61
2023/09/07 12:37:23;;;;;;;9.38;7.15;;;;;;;;;;5045743;28;20041;-61
2023/09/07 12:39:49;;;;;;;8.07;6.60;;;;;;;;;;5049200;28;20048;-61
2023/09/07 12:42:17;;;;;;;8.40;6.22;;;;;;;;;;5056183;28;20049;-61
2023/09/07 12:44:44;;;;;;;8.68;6.18;;;;;;;;;;5058628;28;20037;-61
2023/09/07 12:47:10;;;;;;;7.32;6.50;;;;;;;;;;5042849;28;20494;-60
2023/09/07 12:49:38;;;;;;;7.70;6.28;;;;;;;;;;5049133;28;20490;-60
2023/09/07 12:52:08;;;;;;;8.30;6.38;;;;;;;;;;5060389;28;20041;-61
2023/09/07 12:54:35;;;;;;;;;;;;;;;;;;5053322;28;20055;-60
2023/09/07 12:57:01;;;;;;;7.05;5.95;;;;;;;;;;5054140;28;20003;-60
2023/09/07 12:59:30;;;;;;;7.15;6.28;;;;;;;;;;5046050;28;20045;-60
2023/09/07 13:01:56;;;;;;;8.05;6.15;;;;;;;;;;5052756;28;20041;-61
2023/09/07 13:04:23;;;;;;;6.82;5.80;;;;;;;;;;5056916;28;20052;-61
2023/09/07 13:06:51;;;;;;;9.10;6.45;;;;;;;;;;5050429;28;20136;-60
2023/09/07 13:09:17;;;;;;;7.70;6.15;;;;;;;;;;5057045;28;20045;-60
2023/09/07 13:11:44;;;;;;;7.65;5.78;;;;;;;;;;5049255;28;20363;-61
2023/09/07 13:14:11;;;;;;;8.35;6.78;;;;;;;;;;5054862;28;20055;-61
2023/09/07 13:16:37;;;;;;;7.28;5.50;;;;;;;;;;5055093;28;20045;-61
2023/09/07 13:19:05;;;;;;;6.57;5.35;;;;;;;;;;5042995;28;20093;-60
2023/09/07 13:21:31;;;;;;;7.22;5.45;;;;;;;;;;5055452;28;20056;-61
2023/09/07 13:23:59;;;;;;;6.97;5.28;;;;;;;;;;5051534;28;20490;-61
2023/09/07 13:26:26;;;;;;;8.30;6.05;;;;;;;;;;5054368;28;20056;-61
2023/09/07 13:28:53;;;;;;;6.47;5.20;;;;;;;;;;5047437;28;20055;-61
2023/09/07 13:31:19;;;;;;;7.50;5.90;;;;;;;;;;5049217;28;20045;-60
2023/09/07 13:33:46;;;;;;;9.77;6.45;;;;;;;;;;5051769;28;20127;-60
2023/09/07 13:36:12;;;;;;;7.80;5.43;;;;;;;;;;5058799;28;20049;-61
2023/09/07 13:38:41;;;;;;;7.32;5.30;;;;;;;;;;5057064;28;20107;-61
2023/09/07 13:41:09;;;;;;;6.35;4.85;;;;;;;;;;5055614;28;20094;-60
2023/09/07 13:43:35;;;;;;;7.70;5.10;;;;;;;;;;5045039;28;20060;-61
2023/09/07 13:46:02;;;;;;;17.73;11.25;;;;;;;;;;5056489;28;20402;-61
2023/09/07 13:48:29;;;;;;;13.52;9.75;;;;;;;;;;5067495;28;20152;-61
2023/09/07 13:50:56;;;;;;;6.50;5.40;;;;;;;;;;5062229;28;20183;-61
2023/09/07 13:53:23;;;;;;;7.22;5.70;;;;;;;;;;5061570;28;20051;-61
2023/09/07 13:55:49;;;;;;;7.07;5.00;;;;;;;;;;5067956;28;20508;-61
2023/09/07 13:58:17;;;;;;;5.95;5.03;;;;;;;;;;5049860;28;20045;-61
2023/09/07 14:00:44;;;;;;;7.40;5.65;;;;;;;;;;5042001;28;20069;-60
2023/09/07 14:03:11;;;;;;;6.25;4.95;;;;;;;;;;5045055;28;20056;-61
2023/09/07 14:05:37;;;;;;;6.30;4.95;;;;;;;;;;5053100;28;20055;-61
2023/09/07 14:08:04;;;;;;;6.93;4.85;;;;;;;;;;5043838;28;20051;-61
2023/09/07 14:10:31;;;;;;;7.00;5.55;;;;;;;;;;5055783;28;20091;-61
2023/09/07 14:12:57;;;;;;;6.28;4.70;;;;;;;;;;5049191;28;20047;-61
2023/09/07 14:15:25;;;;;;;7.40;5.35;;;;;;;;;;5055881;28;20036;-60
2023/09/07 14:17:52;;;;;;;6.72;5.30;;;;;;;;;;5053120;28;20051;-61
2023/09/07 14:20:18;;;;;;;5.60;4.82;;;;;;;;;;5062228;28;20048;-61
2023/09/07 14:22:45;;;;;;;7.88;4.88;;;;;;;;;;5055665;28;20040;-61
2023/09/07 14:25:13;;;;;;;5.65;4.60;;;;;;;;;;5046135;28;20483;-61
2023/09/07 14:27:40;;;;;;;6.05;4.80;;;;;;;;;;5046725;28;20064;-61
2023/09/07 14:30:08;;;;;;;6.55;5.35;;;;;;;;;;5044354;28;20049;-61
2023/09/07 14:32:35;;;;;;;7.05;5.43;;;;;;;;;;5058752;28;20052;-61
2023/09/07 14:35:02;;;;;;;6.57;5.30;;;;;;;;;;5060989;28;20112;-59
2023/09/07 14:37:29;;;;;;;6.40;5.13;;;;;;;;;;5060043;28;20051;-61